Time;durP1;ratioP1;P1;durP2;ratioP2;P2;SDS_P1;SDS_P2;PMS_P1;PMS_P2;Temp;Humidity;BMP_temperature;BMP_pressure;BME280_temperature;BME280_humidity;BME280_pressure;Samples;Min_cycle;Max_cycle;Signal;HPM_P1;HPM_P2
2022/09/05 00:01:26;;;;;;;14.17;6.67;;;13.70;98.80;;;;;;5113088;28;20252;-68
2022/09/05 00:04:01;;;;;;;11.23;5.47;;;13.70;98.70;;;;;;5119501;27;20278;-67
2022/09/05 00:06:36;;;;;;;11.40;5.60;;;13.70;98.70;;;;;;5133953;27;20209;-68
2022/09/05 00:09:10;;;;;;;11.00;6.23;;;13.70;98.70;;;;;;5133533;27;20190;-67
2022/09/05 00:11:41;;;;;;;9.43;5.33;;;13.80;98.70;;;;;;5133583;27;20241;-67
2022/09/05 00:14:31;;;;;;;10.23;5.67;;;13.80;98.60;;;;;;5133201;27;20209;-67
2022/09/05 00:17:10;;;;;;;9.20;5.07;;;13.80;98.50;;;;;;5133187;27;20197;-67
2022/09/05 00:19:45;;;;;;;18.73;6.40;;;13.80;98.40;;;;;;5131895;27;20213;-67
2022/09/05 00:22:28;;;;;;;9.57;5.80;;;13.80;98.30;;;;;;5133398;27;20259;-66
2022/09/05 00:25:11;;;;;;;9.37;5.20;;;13.80;98.30;;;;;;5133682;27;20250;-67
2022/09/05 00:27:46;;;;;;;9.67;5.33;;;13.80;98.30;;;;;;5133456;27;20186;-68
2022/09/05 00:30:16;;;;;;;12.37;5.57;;;13.80;98.40;;;;;;5133479;27;20186;-68
2022/09/05 00:33:12;;;;;;;10.23;5.83;;;13.80;98.40;;;;;;5133458;27;20190;-68
2022/09/05 00:35:53;;;;;;;8.73;5.57;;;13.80;98.30;;;;;;5128025;27;20198;-68
2022/09/05 00:38:26;;;;;;;10.53;5.30;;;13.80;98.30;;;;;;5132567;27;20201;-69
2022/09/05 00:40:56;;;;;;;9.00;5.13;;;13.80;98.30;;;;;;5133438;27;20623;-70
2022/09/05 00:43:27;;;;;;;8.83;5.20;;;13.80;98.30;;;;;;5132999;27;20236;-71
2022/09/05 00:45:58;;;;;;;9.87;5.67;;;13.80;98.20;;;;;;5130188;28;20233;-68
2022/09/05 00:48:34;;;;;;;8.93;5.20;;;13.90;98.10;;;;;;5132783;28;20277;-69
2022/09/05 00:51:19;;;;;;;9.47;5.40;;;13.90;98.10;;;;;;5132899;27;20182;-68
2022/09/05 00:54:02;;;;;;;9.83;5.40;;;13.90;98.10;;;;;;5132997;28;20206;-68
2022/09/05 00:56:47;;;;;;;8.70;5.07;;;13.90;97.90;;;;;;5132929;28;20191;-69
2022/09/05 00:59:47;;;;;;;11.50;5.77;;;13.90;97.90;;;;;;5130235;28;20559;-68
2022/09/05 01:02:25;;;;;;;10.13;5.77;;;14.00;97.80;;;;;;5132643;28;20195;-71
2022/09/05 01:05:00;;;;;;;10.50;5.83;;;13.90;97.80;;;;;;5133080;28;20214;-68
2022/09/05 01:07:41;;;;;;;11.77;6.10;;;13.90;97.80;;;;;;5132980;28;20192;-67
2022/09/05 01:10:21;;;;;;;9.60;6.00;;;13.90;97.80;;;;;;5133291;28;20191;-69
2022/09/05 01:13:05;;;;;;;9.53;5.73;;;13.90;97.80;;;;;;5132556;28;20235;-68
2022/09/05 01:15:43;;;;;;;10.03;5.97;;;13.90;97.90;;;;;;5132981;28;20202;-67
2022/09/05 01:18:22;;;;;;;11.47;6.20;;;13.80;97.90;;;;;;5132569;28;20522;-68
2022/09/05 01:21:21;;;;;;;12.27;6.77;;;13.90;98.00;;;;;;5133291;28;20190;-67
2022/09/05 01:24:03;;;;;;;9.43;5.63;;;13.80;98.10;;;;;;5123290;27;20254;-67
2022/09/05 01:27:05;;;;;;;9.73;5.43;;;13.80;98.10;;;;;;5132937;27;20191;-68
2022/09/05 01:29:43;;;;;;;9.67;5.60;;;13.70;98.20;;;;;;5070048;27;20277;-68
2022/09/05 01:32:20;;;;;;;11.73;5.60;;;13.70;98.30;;;;;;5132337;28;20193;-68
2022/09/05 01:34:58;;;;;;;12.00;5.73;;;13.70;98.30;;;;;;5132819;28;20211;-67
2022/09/05 01:37:36;;;;;;;10.80;5.47;;;13.80;98.30;;;;;;5132990;28;20187;-67
2022/09/05 01:40:15;;;;;;;10.97;5.40;;;13.70;98.30;;;;;;5132495;28;20254;-67
2022/09/05 01:42:55;;;;;;;8.63;5.37;;;13.70;98.30;;;;;;5132790;27;20199;-69
2022/09/05 01:45:30;;;;;;;8.13;5.00;;;13.70;98.30;;;;;;5136605;27;20551;-68
2022/09/05 01:48:04;;;;;;;8.43;5.23;;;13.80;98.40;;;;;;5135841;27;20197;-68
2022/09/05 01:50:44;;;;;;;9.63;5.23;;;13.80;98.40;;;;;;5136431;27;20187;-68
2022/09/05 01:53:31;;;;;;;9.50;5.33;;;13.80;98.30;;;;;;5132793;27;20654;-68
2022/09/05 01:56:10;;;;;;;8.77;5.07;;;13.70;98.40;;;;;;5135973;27;20194;-68
2022/09/05 01:59:05;;;;;;;10.70;5.53;;;13.80;98.50;;;;;;5136001;27;20218;-67
2022/09/05 02:01:44;;;;;;;10.63;5.60;;;13.80;98.70;;;;;;5135152;27;20210;-67
2022/09/05 02:04:38;;;;;;;9.33;5.67;;;13.70;98.70;;;;;;5136104;27;20190;-69
2022/09/05 02:07:13;;;;;;;11.80;5.93;;;13.70;98.80;;;;;;5135775;27;20194;-68
2022/09/05 02:10:00;;;;;;;9.10;5.63;;;13.70;98.90;;;;;;5132507;27;20244;-69
2022/09/05 02:12:34;;;;;;;10.83;5.93;;;13.80;99.10;;;;;;5136273;27;20213;-68
2022/09/05 02:15:06;;;;;;;9.97;6.03;;;13.70;99.20;;;;;;5135575;27;20667;-69
2022/09/05 02:17:45;;;;;;;11.90;6.13;;;13.60;99.30;;;;;;5135980;27;20627;-69
2022/09/05 02:20:20;;;;;;;9.83;5.67;;;13.60;99.40;;;;;;5135581;27;20269;-68
2022/09/05 02:22:57;;;;;;;13.10;6.10;;;13.60;99.60;;;;;;5135576;27;20193;-68
2022/09/05 02:25:27;;;;;;;13.87;5.97;;;13.60;99.70;;;;;;5134856;27;20230;-67
2022/09/05 02:28:01;;;;;;;12.77;6.07;;;13.50;99.80;;;;;;5135752;27;20238;-67
2022/09/05 02:30:33;;;;;;;13.17;5.97;;;13.40;99.90;;;;;;5136007;27;20211;-67
2022/09/05 02:33:12;;;;;;;11.10;5.73;;;13.40;99.90;;;;;;5136113;27;20198;-67
2022/09/05 02:35:48;;;;;;;12.43;5.87;;;13.30;99.90;;;;;;5135723;27;20690;-66
2022/09/05 02:38:21;;;;;;;14.53;6.20;;;13.30;99.90;;;;;;5136470;27;20195;-68
2022/09/05 02:40:57;;;;;;;11.63;6.20;;;13.30;99.90;;;;;;5135738;27;20252;-69
2022/09/05 02:43:35;;;;;;;11.57;6.30;;;13.30;99.90;;;;;;5136315;27;20594;-67
2022/09/05 02:46:07;;;;;;;12.20;6.07;;;13.30;99.90;;;;;;5134315;27;20191;-67
2022/09/05 02:48:51;;;;;;;11.30;5.70;;;13.30;99.90;;;;;;5135739;27;20215;-68
2022/09/05 02:51:22;;;;;;;9.03;5.33;;;13.30;99.90;;;;;;5135612;27;20568;-68
2022/09/05 02:53:54;;;;;;;10.90;5.57;;;13.40;99.90;;;;;;5134821;27;20193;-68
2022/09/05 02:56:35;;;;;;;12.37;6.60;;;13.40;99.90;;;;;;5134682;27;20194;-68
2022/09/05 02:59:12;;;;;;;8.53;5.57;;;13.40;99.90;;;;;;5135114;27;20194;-69
2022/09/05 03:01:55;;;;;;;10.50;5.83;;;13.40;99.90;;;;;;5133620;27;20198;-70
2022/09/05 03:04:31;;;;;;;11.23;5.70;;;13.50;99.90;;;;;;5134959;27;20193;-69
2022/09/05 03:07:27;;;;;;;10.27;6.00;;;13.50;99.90;;;;;;5134877;27;20187;-67
2022/09/05 03:10:11;;;;;;;12.10;6.30;;;13.50;99.90;;;;;;5134647;27;20631;-69
2022/09/05 03:13:07;;;;;;;11.77;6.13;;;13.50;99.90;;;;;;5133987;27;20201;-67
2022/09/05 03:16:25;;;;;;;10.73;6.20;;;13.50;99.90;;;;;;5115850;27;20253;-69
2022/09/05 03:19:12;;;;;;;10.63;5.73;;;13.50;99.90;;;;;;5133879;27;20245;-67
2022/09/05 03:22:18;;;;;;;11.00;6.10;;;13.50;99.90;;;;;;5134145;27;20187;-69
2022/09/05 03:25:24;;;;;;;11.23;6.10;;;13.50;99.90;;;;;;5134347;27;20645;-67
2022/09/05 03:28:41;;;;;;;12.17;6.33;;;13.50;99.90;;;;;;5133578;27;20245;-70
2022/09/05 03:31:39;;;;;;;10.07;6.20;;;13.50;99.90;;;;;;5076192;27;20348;-68
2022/09/05 03:34:38;;;;;;;16.60;8.97;;;13.50;99.90;;;;;;5079342;27;20586;-66
2022/09/05 03:37:41;;;;;;;17.83;7.33;;;13.40;99.90;;;;;;5134973;27;20210;-69
2022/09/05 03:40:50;;;;;;;15.10;6.17;;;13.40;99.90;;;;;;5116920;27;20796;-68
2022/09/05 03:43:53;;;;;;;13.73;6.60;;;13.40;99.90;;;;;;5103558;27;20574;-70
2022/09/05 03:46:40;;;;;;;11.60;6.17;;;13.40;99.90;;;;;;5134426;27;20536;-68
2022/09/05 03:49:40;;;;;;;9.80;5.73;;;13.40;99.90;;;;;;5099746;27;20213;-68
2022/09/05 03:52:18;;;;;;;14.77;6.53;;;13.40;99.90;;;;;;5134121;27;20316;-68
2022/09/05 03:55:07;;;;;;;10.60;6.63;;;13.50;99.90;;;;;;5132588;27;20217;-67
2022/09/05 03:58:06;;;;;;;14.03;6.73;;;13.50;99.90;;;;;;5133450;27;20190;-68
2022/09/05 04:00:35;;;;;;;10.77;6.10;;;13.50;99.90;;;;;;5133578;27;20202;-68
2022/09/05 04:03:10;;;;;;;13.63;6.97;;;13.50;99.90;;;;;;5133480;27;20218;-67
2022/09/05 04:05:41;;;;;;;13.20;6.30;;;13.60;99.90;;;;;;5133593;27;20251;-69
2022/09/05 04:08:14;;;;;;;13.90;6.70;;;13.50;99.90;;;;;;5133458;27;20650;-69
2022/09/05 04:10:50;;;;;;;12.83;7.00;;;13.60;99.90;;;;;;5133266;27;20208;-68
2022/09/05 04:13:22;;;;;;;13.83;6.67;;;13.60;99.90;;;;;;5133585;27;20187;-71
2022/09/05 04:16:03;;;;;;;11.77;6.73;;;13.60;99.90;;;;;;5133656;27;20560;-72
2022/09/05 04:18:37;;;;;;;12.83;7.37;;;13.60;99.90;;;;;;5131542;27;20520;-70
2022/09/05 04:21:10;;;;;;;16.33;8.37;;;13.60;99.90;;;;;;5131948;27;20710;-70
2022/09/05 04:23:47;;;;;;;18.50;8.13;;;13.60;99.90;;;;;;5130782;27;20229;-68
2022/09/05 04:26:25;;;;;;;13.50;7.90;;;13.70;99.90;;;;;;5133323;27;20221;-67
2022/09/05 04:29:02;;;;;;;14.93;8.00;;;13.60;99.90;;;;;;5132917;27;20326;-68
2022/09/05 04:31:43;;;;;;;13.73;7.57;;;13.70;99.90;;;;;;5133034;27;20244;-67
2022/09/05 04:34:22;;;;;;;17.87;7.67;;;13.60;99.90;;;;;;5130519;27;20211;-68
2022/09/05 04:37:00;;;;;;;12.93;7.57;;;13.60;99.90;;;;;;5132500;27;20210;-69
2022/09/05 04:39:28;;;;;;;13.17;7.50;;;13.70;99.90;;;;;;5134080;27;20193;-68
2022/09/05 04:42:02;;;;;;;12.23;7.10;;;13.70;99.90;;;;;;5134272;27;20202;-67
2022/09/05 04:44:35;;;;;;;13.07;7.10;;;13.70;99.90;;;;;;5132556;27;20197;-68
2022/09/05 04:47:08;;;;;;;13.37;6.93;;;13.70;99.90;;;;;;5133565;27;20191;-68
2022/09/05 04:49:40;;;;;;;12.47;6.47;;;13.80;99.90;;;;;;5133250;28;20191;-67
2022/09/05 04:52:47;;;;;;;12.53;6.70;;;13.80;99.90;;;;;;5133553;28;20187;-67
2022/09/05 04:55:17;;;;;;;14.70;6.50;;;13.90;99.90;;;;;;5112745;28;20258;-69
2022/09/05 04:57:48;;;;;;;14.80;7.10;;;13.90;99.90;;;;;;5112691;28;20225;-70
2022/09/05 05:00:25;;;;;;;13.97;7.23;;;13.80;99.90;;;;;;5113259;28;20198;-70
2022/09/05 05:02:56;;;;;;;13.33;6.67;;;13.90;99.90;;;;;;5116414;28;20243;-69
2022/09/05 05:05:25;;;;;;;13.43;7.40;;;13.90;99.90;;;;;;5133584;28;20193;-67
2022/09/05 05:07:57;;;;;;;13.93;7.83;;;14.00;99.90;;;;;;5132021;28;20209;-67
2022/09/05 05:10:32;;;;;;;21.93;9.03;;;14.00;99.90;;;;;;5132623;28;20236;-68
2022/09/05 05:13:06;;;;;;;18.83;9.10;;;14.00;99.90;;;;;;5131804;28;20198;-68
2022/09/05 05:15:50;;;;;;;21.27;10.70;;;14.00;99.90;;;;;;5132589;28;20237;-67
2022/09/05 05:18:22;;;;;;;26.77;11.67;;;14.10;99.90;;;;;;5134482;27;20190;-69
2022/09/05 05:20:55;;;;;;;19.27;10.23;;;14.10;99.90;;;;;;5135362;27;20191;-69
2022/09/05 05:23:33;;;;;;;16.47;9.47;;;14.20;99.90;;;;;;5135366;27;20198;-68
2022/09/05 05:26:02;;;;;;;18.37;9.73;;;14.20;99.90;;;;;;5136969;27;20198;-67
2022/09/05 05:28:41;;;;;;;19.37;9.03;;;14.20;99.90;;;;;;5134518;27;20603;-68
2022/09/05 05:31:12;;;;;;;18.43;8.63;;;14.30;99.90;;;;;;5133641;27;20199;-68
2022/09/05 05:33:40;;;;;;;15.23;7.83;;;14.30;99.90;;;;;;5135332;27;20222;-68
2022/09/05 05:36:14;;;;;;;15.43;7.93;;;14.40;99.90;;;;;;5136350;27;20258;-68
2022/09/05 05:38:48;;;;;;;14.13;7.80;;;14.40;99.90;;;;;;5137214;27;20215;-68
2022/09/05 05:41:21;;;;;;;15.90;8.23;;;14.50;99.90;;;;;;5136591;27;20218;-69
2022/09/05 05:43:50;;;;;;;15.60;8.27;;;14.50;99.90;;;;;;5132023;27;22018;-68
2022/09/05 05:46:30;;;;;;;16.80;8.40;;;14.50;99.90;;;;;;5115942;28;20195;-69
2022/09/05 05:49:14;;;;;;;18.83;8.00;;;14.60;99.90;;;;;;5116126;28;20188;-70
2022/09/05 05:51:52;;;;;;;18.57;8.03;;;14.70;99.90;;;;;;5124309;27;20202;-69
2022/09/05 05:54:28;;;;;;;20.97;8.60;;;14.70;99.90;;;;;;5136242;27;20239;-70
2022/09/05 05:57:23;;;;;;;14.83;7.90;;;14.80;99.90;;;;;;5136596;27;20301;-69
2022/09/05 06:00:03;;;;;;;17.57;8.23;;;14.80;99.90;;;;;;5099107;27;20202;-71
2022/09/05 06:03:15;;;;;;;16.90;8.97;;;14.80;99.90;;;;;;5134723;27;20202;-71
2022/09/05 06:06:24;;;;;;;13.37;7.23;;;14.80;99.90;;;;;;5135398;27;20193;-71
2022/09/05 06:09:42;;;;;;;15.70;8.23;;;14.90;99.90;;;;;;5115301;27;20588;-71
2022/09/05 06:12:46;;;;;;;14.00;8.47;;;14.90;99.90;;;;;;5132919;27;20217;-71
2022/09/05 06:15:41;;;;;;;15.50;8.53;;;14.90;99.90;;;;;;5109673;27;20218;-71
2022/09/05 06:18:53;;;;;;;14.27;8.67;;;15.00;99.90;;;;;;5125301;27;20190;-71
2022/09/05 06:22:02;;;;;;;14.83;8.70;;;15.10;99.90;;;;;;5130347;27;20298;-71
2022/09/05 06:25:02;;;;;;;18.60;9.73;;;15.10;99.90;;;;;;5135602;27;20206;-71
2022/09/05 06:27:43;;;;;;;15.10;8.70;;;15.20;99.90;;;;;;5133821;27;20852;-72
2022/09/05 06:30:16;;;;;;;20.30;9.70;;;15.40;99.90;;;;;;5133970;27;20245;-71
2022/09/05 06:33:04;;;;;;;15.73;8.77;;;15.40;99.90;;;;;;5135856;27;20187;-71
2022/09/05 06:35:49;;;;;;;18.93;8.90;;;15.50;99.90;;;;;;5133325;27;20214;-71
2022/09/05 06:38:30;;;;;;;15.97;8.50;;;15.50;99.90;;;;;;5132253;27;20625;-73
2022/09/05 06:41:14;;;;;;;15.27;8.80;;;15.60;99.90;;;;;;5135534;27;20191;-71
2022/09/05 06:44:12;;;;;;;17.97;9.33;;;15.60;99.90;;;;;;5135402;27;20639;-71
2022/09/05 06:46:41;;;;;;;22.07;10.23;;;15.60;99.90;;;;;;5133726;27;20207;-71
2022/09/05 06:49:16;;;;;;;16.97;9.63;;;15.60;99.90;;;;;;5129932;27;20286;-70
2022/09/05 06:52:00;;;;;;;18.53;9.27;;;15.60;99.90;;;;;;5126507;27;20425;-71
2022/09/05 06:55:00;;;;;;;17.73;9.87;;;15.70;99.90;;;;;;5132913;27;20233;-70
2022/09/05 06:58:18;;;;;;;19.33;10.50;;;15.70;99.90;;;;;;5135120;27;20574;-70
2022/09/05 07:00:48;;;;;;;22.07;11.40;;;15.70;99.90;;;;;;5077522;27;20199;-70
2022/09/05 07:03:38;;;;;;;22.77;11.80;;;15.60;99.90;;;;;;5132175;27;20618;-66
2022/09/05 07:06:08;;;;;;;41.60;24.13;;;15.60;99.90;;;;;;5131409;27;20195;-69
2022/09/05 07:08:46;;;;;;;65.37;33.67;;;15.60;99.90;;;;;;5132205;27;20226;-69
2022/09/05 07:11:18;;;;;;;86.77;44.93;;;15.60;99.90;;;;;;5134670;27;20198;-68
2022/09/05 07:13:55;;;;;;;112.03;56.13;;;15.70;99.90;;;;;;5134770;27;20788;-67
2022/09/05 07:16:31;;;;;;;87.80;47.07;;;15.70;99.90;;;;;;5132318;27;20206;-68
2022/09/05 07:19:08;;;;;;;78.77;43.07;;;15.80;99.90;;;;;;5134737;27;20207;-68
2022/09/05 07:21:45;;;;;;;82.77;43.93;;;15.70;99.90;;;;;;5130412;27;20194;-70
2022/09/05 07:24:18;;;;;;;73.70;35.93;;;15.70;99.90;;;;;;5128059;27;20206;-71
2022/09/05 07:26:47;;;;;;;148.67;73.50;;;15.70;99.90;;;;;;5130522;27;20282;-74
2022/09/05 07:29:19;;;;;;;157.47;77.63;;;15.70;99.90;;;;;;5127838;27;20241;-67
2022/09/05 07:31:49;;;;;;;142.03;74.57;;;15.70;99.90;;;;;;5134207;27;20657;-68
2022/09/05 07:34:21;;;;;;;141.67;72.30;;;15.60;99.90;;;;;;5133590;27;20226;-66
2022/09/05 07:36:52;;;;;;;139.07;67.13;;;15.40;99.90;;;;;;5134181;27;20211;-68
2022/09/05 07:39:24;;;;;;;134.80;68.20;;;15.10;99.90;;;;;;5132096;27;20568;-67
2022/09/05 07:41:55;;;;;;;111.13;57.03;;;14.90;99.90;;;;;;5133796;27;20187;-67
2022/09/05 07:44:26;;;;;;;111.83;56.10;;;14.80;99.90;;;;;;5133812;27;20236;-66
2022/09/05 07:47:03;;;;;;;111.53;55.20;;;14.70;99.90;;;;;;5133788;27;20183;-67
2022/09/05 07:49:34;;;;;;;108.07;53.50;;;14.60;99.90;;;;;;5133366;27;20779;-68
2022/09/05 07:52:05;;;;;;;106.10;54.10;;;14.50;99.90;;;;;;5133339;27;20187;-68
2022/09/05 07:54:40;;;;;;;98.60;51.83;;;14.50;99.90;;;;;;5133771;27;20223;-68
2022/09/05 07:57:10;;;;;;;94.87;51.33;;;14.50;99.90;;;;;;5133305;27;20217;-68
2022/09/05 07:59:40;;;;;;;93.67;48.37;;;14.50;99.90;;;;;;5132163;27;20202;-67
2022/09/05 08:02:10;;;;;;;97.47;50.93;;;14.50;99.90;;;;;;5133260;27;20726;-67
2022/09/05 08:04:39;;;;;;;105.20;53.23;;;14.40;99.90;;;;;;5133515;27;20213;-69
2022/09/05 08:07:10;;;;;;;101.77;51.80;;;14.40;99.90;;;;;;5131452;27;20203;-68
2022/09/05 08:09:42;;;;;;;115.13;54.80;;;14.50;99.90;;;;;;5132917;27;20194;-66
2022/09/05 08:12:14;;;;;;;93.80;48.20;;;14.50;99.90;;;;;;5133295;27;20217;-68
2022/09/05 08:14:44;;;;;;;92.40;47.53;;;14.60;99.90;;;;;;5133583;27;20557;-68
2022/09/05 08:17:15;;;;;;;89.63;48.33;;;14.70;99.90;;;;;;5131597;27;20310;-69
2022/09/05 08:20:05;;;;;;;100.43;50.50;;;14.70;99.90;;;;;;5133534;27;20191;-69
2022/09/05 08:22:44;;;;;;;79.40;43.40;;;14.80;99.90;;;;;;5133482;27;20193;-68
2022/09/05 08:25:16;;;;;;;81.03;44.20;;;14.90;99.90;;;;;;5133134;27;20214;-67
2022/09/05 08:27:57;;;;;;;86.83;45.67;;;15.00;99.90;;;;;;5130185;27;20261;-68
2022/09/05 08:30:24;;;;;;;79.07;42.37;;;15.10;99.90;;;;;;5129469;27;20665;-67
2022/09/05 08:32:58;;;;;;;70.43;41.03;;;15.10;99.90;;;;;;5132739;27;20207;-68
2022/09/05 08:35:29;;;;;;;74.37;40.13;;;15.20;99.90;;;;;;5128134;27;20570;-68
2022/09/05 08:37:57;;;;;;;72.33;41.13;;;15.30;99.90;;;;;;5132778;27;20344;-68
2022/09/05 08:40:31;;;;;;;64.73;36.13;;;15.30;99.90;;;;;;5133451;27;20203;-67
2022/09/05 08:43:03;;;;;;;53.30;30.37;;;15.40;99.90;;;;;;5132436;27;20187;-69
2022/09/05 08:45:39;;;;;;;48.73;25.23;;;15.50;99.90;;;;;;5129827;27;20277;-69
2022/09/05 08:48:20;;;;;;;41.73;23.27;;;15.50;99.90;;;;;;5132213;27;20218;-68
2022/09/05 08:51:23;;;;;;;38.37;21.97;;;15.60;99.90;;;;;;5131321;27;20227;-71
2022/09/05 08:54:18;;;;;;;49.47;26.67;;;15.60;99.90;;;;;;5131463;27;20193;-68
2022/09/05 08:56:57;;;;;;;42.07;25.13;;;15.70;99.90;;;;;;5132149;28;20752;-70
2022/09/05 08:59:29;;;;;;;37.90;22.60;;;15.70;99.90;;;;;;5131770;28;20213;-70
2022/09/05 09:02:33;;;;;;;35.57;20.13;;;15.80;99.90;;;;;;5132582;27;20191;-70
2022/09/05 09:05:10;;;;;;;40.47;22.60;;;15.90;99.90;;;;;;5108385;27;20634;-67
2022/09/05 09:07:42;;;;;;;42.40;23.70;;;15.90;99.90;;;;;;5128606;28;20650;-67
2022/09/05 09:10:25;;;;;;;42.27;23.53;;;16.00;99.90;;;;;;5129969;28;20202;-68
2022/09/05 09:13:12;;;;;;;43.17;25.03;;;16.00;99.90;;;;;;5129780;28;20234;-68
2022/09/05 09:15:45;;;;;;;41.33;23.53;;;16.20;99.90;;;;;;5126055;28;20206;-68
2022/09/05 09:18:15;;;;;;;40.13;23.03;;;16.30;99.90;;;;;;5111809;28;20285;-69
2022/09/05 09:20:51;;;;;;;34.43;19.13;;;16.40;99.90;;;;;;5127469;28;20207;-68
2022/09/05 09:23:44;;;;;;;26.83;15.27;;;16.60;99.90;;;;;;5119136;27;20288;-69
2022/09/05 09:26:14;;;;;;;24.77;13.93;;;16.70;99.90;;;;;;5106801;27;20202;-71
2022/09/05 09:28:55;;;;;;;23.93;14.70;;;16.90;99.90;;;;;;5120565;28;20735;-69
2022/09/05 09:31:35;;;;;;;23.33;12.70;;;17.10;99.90;;;;;;5123048;28;20251;-68
2022/09/05 09:34:19;;;;;;;23.60;12.27;;;17.30;99.90;;;;;;5129482;27;20201;-68
2022/09/05 09:37:08;;;;;;;22.13;11.60;;;17.50;99.90;;;;;;5132721;27;20216;-68
2022/09/05 09:39:46;;;;;;;21.60;11.83;;;17.60;99.90;;;;;;5132519;28;20207;-68
2022/09/05 09:42:32;;;;;;;20.27;11.67;;;17.70;99.90;;;;;;5132301;28;20250;-68
2022/09/05 09:45:21;;;;;;;20.80;10.23;;;17.80;99.90;;;;;;5131369;27;20252;-68
2022/09/05 09:48:16;;;;;;;18.63;11.50;;;17.90;99.90;;;;;;5132183;28;20181;-67
2022/09/05 09:51:00;;;;;;;19.13;11.20;;;17.90;99.90;;;;;;5132139;28;20221;-68
2022/09/05 09:53:56;;;;;;;17.60;10.20;;;18.10;99.90;;;;;;5132684;28;20652;-68
2022/09/05 09:57:02;;;;;;;18.80;10.60;;;18.10;99.90;;;;;;5097552;27;20264;-68
2022/09/05 09:59:47;;;;;;;21.97;12.13;;;18.20;99.90;;;;;;5056051;27;20219;-69
2022/09/05 10:02:32;;;;;;;23.00;12.33;;;18.20;99.90;;;;;;5132749;28;20635;-68
2022/09/05 10:05:30;;;;;;;15.00;8.60;;;18.20;99.90;;;;;;5133096;27;20203;-68
2022/09/05 10:08:17;;;;;;;10.87;6.03;;;18.20;99.90;;;;;;5135729;27;20183;-67
2022/09/05 10:11:19;;;;;;;13.07;6.83;;;18.10;99.90;;;;;;5136095;27;20627;-68
2022/09/05 10:14:21;;;;;;;10.43;4.90;;;18.20;99.90;;;;;;5135698;27;20229;-67
2022/09/05 10:17:10;;;;;;;15.40;7.70;;;18.20;99.60;;;;;;5135668;27;20242;-68
2022/09/05 10:20:02;;;;;;;10.77;6.93;;;18.20;99.90;;;;;;5135780;27;20225;-68
2022/09/05 10:22:59;;;;;;;8.93;5.17;;;18.30;99.90;;;;;;5115319;27;20197;-67
2022/09/05 10:25:38;;;;;;;10.37;5.90;;;18.40;99.90;;;;;;5098312;28;20206;-66
2022/09/05 10:28:07;;;;;;;11.27;5.40;;;18.50;99.60;;;;;;5114937;28;20241;-67
2022/09/05 10:30:55;;;;;;;11.47;6.50;;;18.50;99.90;;;;;;5115115;28;20673;-68
2022/09/05 10:33:31;;;;;;;9.83;6.20;;;18.50;99.80;;;;;;5115096;28;20213;-67
2022/09/05 10:36:05;;;;;;;12.60;6.57;;;18.70;99.90;;;;;;5114533;28;20277;-68
2022/09/05 10:38:39;;;;;;;10.27;6.57;;;18.70;99.90;;;;;;5115206;27;20186;-69
2022/09/05 10:41:10;;;;;;;11.73;6.67;;;18.70;99.60;;;;;;5114764;28;20220;-68
2022/09/05 10:43:47;;;;;;;11.43;6.30;;;18.70;99.60;;;;;;5114213;28;20203;-67
2022/09/05 10:46:26;;;;;;;11.33;6.90;;;18.60;99.60;;;;;;5115256;28;20184;-67
2022/09/05 10:48:58;;;;;;;9.40;5.73;;;18.70;99.70;;;;;;5114715;28;20596;-68
2022/09/05 10:51:33;;;;;;;9.83;6.30;;;18.70;99.90;;;;;;5115002;28;20203;-67
2022/09/05 10:54:17;;;;;;;11.73;6.80;;;18.70;99.70;;;;;;5117129;27;20222;-68
2022/09/05 10:56:47;;;;;;;11.57;6.70;;;18.80;99.80;;;;;;5114363;28;20236;-66
2022/09/05 10:59:20;;;;;;;10.63;6.37;;;18.90;99.30;;;;;;5114405;28;20207;-66
2022/09/05 11:01:59;;;;;;;13.07;6.97;;;19.00;99.40;;;;;;5114241;28;20281;-67
2022/09/05 11:04:44;;;;;;;11.37;7.00;;;19.00;99.70;;;;;;5114381;28;20195;-68
2022/09/05 11:07:14;;;;;;;16.17;8.17;;;19.00;99.40;;;;;;5113838;27;20307;-67
2022/09/05 11:10:02;;;;;;;15.03;7.57;;;19.00;98.50;;;;;;5113729;28;20211;-67
2022/09/05 11:12:48;;;;;;;17.20;8.60;;;19.00;99.70;;;;;;5114195;27;20192;-68
2022/09/05 11:15:29;;;;;;;14.07;7.60;;;19.00;99.90;;;;;;5113937;28;20228;-68
2022/09/05 11:18:02;;;;;;;17.37;8.87;;;19.00;99.90;;;;;;5114060;28;20213;-68
2022/09/05 11:20:47;;;;;;;15.43;8.70;;;19.00;99.90;;;;;;5113547;28;20187;-67
2022/09/05 11:23:20;;;;;;;14.33;9.37;;;18.90;99.90;;;;;;5121925;27;20230;-66
2022/09/05 11:25:55;;;;;;;18.37;10.77;;;18.80;99.90;;;;;;5130426;27;20202;-67
2022/09/05 11:28:35;;;;;;;19.67;10.13;;;18.70;99.90;;;;;;5122897;27;20226;-66
2022/09/05 11:31:09;;;;;;;21.83;11.37;;;18.60;99.90;;;;;;5122962;27;20194;-67
2022/09/05 11:34:00;;;;;;;19.67;12.00;;;18.60;99.90;;;;;;5122128;27;20288;-68
2022/09/05 11:36:32;;;;;;;18.43;10.97;;;18.50;99.90;;;;;;5123511;27;20189;-69
2022/09/05 11:39:35;;;;;;;17.20;10.27;;;18.40;99.90;;;;;;5113871;28;20229;-67
2022/09/05 11:42:37;;;;;;;16.80;8.50;;;18.30;99.90;;;;;;5128286;27;20218;-68
2022/09/05 11:45:35;;;;;;;13.63;7.87;;;18.30;99.90;;;;;;5113607;28;20192;-68
2022/09/05 11:48:22;;;;;;;13.50;9.07;;;18.20;99.90;;;;;;5113368;28;20560;-68
2022/09/05 11:51:13;;;;;;;12.10;7.17;;;18.10;99.90;;;;;;5113779;28;20245;-68
2022/09/05 11:54:19;;;;;;;14.37;7.40;;;18.10;99.90;;;;;;5118718;27;20203;-68
2022/09/05 11:57:18;;;;;;;15.33;7.20;;;18.20;99.90;;;;;;5133314;27;20206;-69
2022/09/05 12:00:07;;;;;;;12.70;6.40;;;18.20;99.90;;;;;;5133358;27;20232;-69
2022/09/05 12:03:13;;;;;;;10.03;5.97;;;18.10;99.60;;;;;;5133310;27;20197;-68
2022/09/05 12:06:06;;;;;;;10.00;4.37;;;18.20;99.90;;;;;;5133514;27;20273;-69
2022/09/05 12:08:38;;;;;;;8.53;4.27;;;18.20;99.70;;;;;;5113216;28;20240;-69
2022/09/05 12:11:15;;;;;;;8.97;4.83;;;18.20;99.60;;;;;;5118179;27;20591;-68
2022/09/05 12:13:47;;;;;;;8.07;4.13;;;18.30;99.50;;;;;;5131449;27;20213;-68
2022/09/05 12:16:36;;;;;;;6.90;3.53;;;18.30;99.00;;;;;;5123726;27;20556;-70
2022/09/05 12:19:12;;;;;;;6.57;4.10;;;18.20;98.70;;;;;;5145614;27;20197;-71
2022/09/05 12:22:02;;;;;;;7.13;3.97;;;18.30;98.50;;;;;;5118714;27;20665;-72
2022/09/05 12:24:40;;;;;;;9.53;5.67;;;18.40;98.40;;;;;;5140694;27;20618;-71
2022/09/05 12:27:09;;;;;;;10.83;5.83;;;18.40;98.40;;;;;;5119970;27;20266;-71
2022/09/05 12:29:40;;;;;;;14.43;6.50;;;18.40;97.90;;;;;;5130648;27;20278;-70
2022/09/05 12:32:14;;;;;;;11.63;6.40;;;18.30;97.00;;;;;;5131329;27;20195;-71
2022/09/05 12:34:49;;;;;;;10.40;5.50;;;18.40;97.10;;;;;;5133320;27;20636;-70
2022/09/05 12:37:27;;;;;;;11.17;6.00;;;18.40;97.10;;;;;;5132306;27;20224;-69
2022/09/05 12:39:58;;;;;;;10.47;6.30;;;18.40;96.10;;;;;;5133701;27;20189;-69
2022/09/05 12:42:32;;;;;;;10.67;6.17;;;18.50;95.70;;;;;;5132933;27;20226;-69
2022/09/05 12:45:08;;;;;;;14.70;7.47;;;18.40;95.50;;;;;;5133368;27;20553;-69
2022/09/05 12:47:58;;;;;;;11.67;7.07;;;18.40;93.90;;;;;;5133321;27;20288;-69
2022/09/05 12:50:38;;;;;;;8.57;4.90;;;18.50;94.20;;;;;;5133271;27;20197;-69
2022/09/05 12:53:11;;;;;;;9.93;5.93;;;18.60;95.70;;;;;;5133585;28;20195;-70
2022/09/05 12:55:42;;;;;;;7.23;4.73;;;18.60;94.70;;;;;;5133189;28;20190;-70
2022/09/05 12:58:19;;;;;;;9.20;4.20;;;18.50;95.20;;;;;;5133305;28;20209;-69
2022/09/05 13:00:49;;;;;;;6.77;3.73;;;18.50;95.70;;;;;;5132865;28;20287;-69
2022/09/05 13:03:23;;;;;;;5.20;3.43;;;18.50;96.00;;;;;;5132632;28;20204;-69
2022/09/05 13:06:05;;;;;;;7.10;3.83;;;18.60;96.00;;;;;;5132853;28;20182;-69
2022/09/05 13:08:46;;;;;;;5.90;3.73;;;18.50;95.80;;;;;;5132951;28;20207;-70
2022/09/05 13:11:17;;;;;;;4.67;3.27;;;18.60;95.90;;;;;;5132573;28;20649;-70
2022/09/05 13:13:47;;;;;;;6.00;3.20;;;18.60;96.10;;;;;;5133015;28;20194;-68
2022/09/05 13:16:21;;;;;;;8.37;3.97;;;18.70;96.00;;;;;;5132501;27;20280;-70
2022/09/05 13:18:50;;;;;;;9.43;4.67;;;18.70;95.50;;;;;;5132300;28;20214;-69
2022/09/05 13:21:21;;;;;;;10.40;5.53;;;18.60;95.40;;;;;;5132566;28;20643;-70
2022/09/05 13:24:03;;;;;;;9.87;5.30;;;18.70;95.20;;;;;;5132584;27;20222;-69
2022/09/05 13:26:36;;;;;;;11.40;5.83;;;18.70;94.80;;;;;;5132767;27;20210;-69
2022/09/05 13:29:11;;;;;;;13.73;7.20;;;18.80;94.30;;;;;;5132453;27;20234;-68
2022/09/05 13:32:08;;;;;;;12.07;6.83;;;18.80;93.40;;;;;;5132916;28;20195;-69
2022/09/05 13:34:41;;;;;;;13.27;7.00;;;18.80;93.60;;;;;;5132798;27;20194;-68
2022/09/05 13:37:15;;;;;;;18.77;9.43;;;18.80;93.90;;;;;;5132673;28;20630;-69
2022/09/05 13:39:50;;;;;;;16.87;10.20;;;18.80;93.00;;;;;;5134724;27;20279;-69
2022/09/05 13:42:21;;;;;;;19.30;11.13;;;18.80;92.20;;;;;;5135712;27;20186;-69
2022/09/05 13:44:52;;;;;;;9.87;5.57;;;18.70;91.80;;;;;;5136154;27;20196;-70